Time;durP1;ratioP1;P1;durP2;ratioP2;P2;SDS_P1;SDS_P2;PMS_P1;PMS_P2;Temp;Humidity;BMP_temperature;BMP_pressure;BME280_temperature;BME280_humidity;BME280_pressure;Samples;Min_cycle;Max_cycle;Signal;HPM_P1;HPM_P2
2021/04/09 00:01:34;;;;;;;4.05;2.10;;;;;;;4.36;49.02;97424.75;5094585;27;20030;-77
2021/04/09 00:03:59;;;;;;;6.15;2.17;;;;;;;4.39;49.49;97428.72;5111465;27;20102;-77
2021/04/09 00:06:25;;;;;;;3.92;2.17;;;;;;;4.36;49.48;97423.97;5087666;28;20177;-77
2021/04/09 00:08:50;;;;;;;3.53;1.98;;;;;;;4.36;49.37;97421.38;5089413;27;20492;-77
2021/04/09 00:11:16;;;;;;;4.82;1.85;;;;;;;4.27;49.44;97420.78;5094522;27;20109;-77
2021/04/09 00:13:42;;;;;;;3.78;1.65;;;;;;;4.20;50.13;97414.81;5073448;27;20042;-76
2021/04/09 00:16:07;;;;;;;3.75;2.10;;;;;;;4.19;50.13;97414.03;5110037;27;20023;-77
2021/04/09 00:18:32;;;;;;;3.78;2.30;;;;;;;4.19;49.99;97408.88;5095188;27;20083;-77
2021/04/09 00:20:58;;;;;;;3.28;1.70;;;;;;;4.17;49.63;97404.94;5090055;27;20039;-77
2021/04/09 00:23:23;;;;;;;3.95;1.77;;;;;;;4.19;49.73;97397.78;5110466;27;20426;-77
2021/04/09 00:25:49;;;;;;;3.78;2.10;;;;;;;4.13;49.79;97402.75;5109519;27;20086;-77
2021/04/09 00:28:14;;;;;;;5.55;1.95;;;;;;;4.18;49.63;97406.50;5129787;27;20073;-76
2021/04/09 00:30:39;;;;;;;4.07;1.80;;;;;;;4.15;49.77;97397.38;5102076;27;20544;-77
2021/04/09 00:33:05;;;;;;;5.00;1.90;;;;;;;4.16;49.48;97403.31;5108621;27;20066;-77
2021/04/09 00:35:30;;;;;;;5.93;2.50;;;;;;;4.12;50.07;97397.78;5095357;27;20440;-76
2021/04/09 00:37:55;;;;;;;4.75;2.10;;;;;;;4.10;50.29;97392.03;5103380;27;20038;-76
2021/04/09 00:40:21;;;;;;;6.45;2.38;;;;;;;4.11;50.42;97396.19;5106788;28;20430;-76
2021/04/09 00:42:47;;;;;;;5.45;1.98;;;;;;;4.13;50.24;97392.44;5090914;27;20035;-77
2021/04/09 00:45:14;;;;;;;3.45;1.80;;;;;;;4.12;50.23;97395.19;5077293;27;20027;-77
2021/04/09 00:47:40;;;;;;;5.03;2.03;;;;;;;4.16;49.40;97393.03;5071255;27;20035;-77
2021/04/09 00:50:07;;;;;;;3.58;1.55;;;;;;;4.22;50.56;97390.44;5085720;28;20047;-76
2021/04/09 00:52:34;;;;;;;4.10;2.45;;;;;;;4.18;50.41;97386.69;5075999;27;20039;-76
2021/04/09 00:55:00;;;;;;;4.25;2.10;;;;;;;4.26;50.12;97388.25;5107715;28;20352;-77
2021/04/09 00:57:26;;;;;;;3.63;2.13;;;;;;;4.34;50.11;97379.56;5085944;28;20059;-77
2021/04/09 00:59:52;;;;;;;8.73;2.30;;;;;;;4.46;48.47;97373.59;5089233;28;20063;-77
2021/04/09 01:02:17;;;;;;;3.83;1.80;;;;;;;4.60;48.44;97371.00;5087257;28;20035;-77
2021/04/09 01:04:42;;;;;;;3.85;2.00;;;;;;;4.65;48.68;97376.34;5079614;28;20031;-77
2021/04/09 01:07:08;;;;;;;5.70;2.13;;;;;;;4.60;48.49;97363.25;5102601;28;20027;-76
2021/04/09 01:09:35;;;;;;;3.50;2.08;;;;;;;4.66;48.31;97376.16;5089238;27;20027;-77
2021/04/09 01:12:03;;;;;;;3.80;2.47;;;;;;;4.61;48.49;97368.22;5076627;27;20027;-77
2021/04/09 01:14:29;;;;;;;9.10;2.70;;;;;;;4.59;47.92;97364.25;5108744;28;20118;-77
2021/04/09 01:17:02;;;;;;;7.43;2.20;;;;;;;4.53;47.26;97365.06;5094506;27;20553;-77
2021/04/09 01:19:53;;;;;;;5.95;2.15;;;;;;;4.44;47.78;97365.25;5094672;27;20539;-77
2021/04/09 01:22:19;;;;;;;4.50;2.25;;;;;;;4.55;47.94;97358.69;5107715;27;20029;-76
2021/04/09 01:25:03;;;;;;;3.30;1.85;;;;;;;4.16;49.26;97362.88;5093920;27;20332;-76
2021/04/09 01:27:44;;;;;;;5.38;2.22;;;;;;;4.36;48.52;97356.94;5110315;27;20026;-77
2021/04/09 01:30:21;;;;;;;3.90;2.28;;;;;;;4.16;49.23;97355.16;5129748;27;20026;-77
2021/04/09 01:32:47;;;;;;;4.05;2.40;;;;;;;4.35;49.08;97345.81;5093489;28;20038;-77
2021/04/09 01:35:15;;;;;;;5.78;2.08;;;;;;;4.40;48.16;97345.22;5105541;27;20035;-76
2021/04/09 01:37:43;;;;;;;4.00;2.33;;;;;;;4.39;48.58;97351.41;5111715;27;20035;-77
2021/04/09 01:40:13;;;;;;;3.75;2.30;;;;;;;4.43;48.83;97352.56;5107015;27;20041;-77
2021/04/09 01:42:40;;;;;;;2.90;1.90;;;;;;;4.36;49.06;97354.38;5101317;28;20560;-76
2021/04/09 01:45:07;;;;;;;5.47;1.95;;;;;;;4.30;48.79;97346.44;5092708;27;20026;-76
2021/04/09 01:47:33;;;;;;;3.80;2.00;;;;;;;4.34;49.40;97346.03;5104674;28;20048;-77
2021/04/09 01:50:00;;;;;;;4.32;2.15;;;;;;;4.29;48.81;97344.06;5093917;28;20042;-77
2021/04/09 01:52:30;;;;;;;5.40;2.15;;;;;;;4.26;48.91;97336.72;5083469;28;20495;-77
2021/04/09 01:54:56;;;;;;;5.60;2.28;;;;;;;4.32;49.21;97330.78;5090398;28;20047;-77
2021/04/09 01:57:23;;;;;;;5.72;2.35;;;;;;;4.41;48.87;97336.50;5082170;28;20482;-77
2021/04/09 01:59:51;;;;;;;3.75;1.83;;;;;;;4.40;48.72;97327.19;5110904;28;20039;-77
2021/04/09 02:02:17;;;;;;;3.92;2.63;;;;;;;4.48;49.08;97334.72;5061767;28;20535;-76
2021/04/09 02:04:46;;;;;;;7.93;2.85;;;;;;;4.55;47.29;97337.28;5106219;28;20031;-77
2021/04/09 02:07:15;;;;;;;3.80;2.50;;;;;;;4.60;47.27;97337.47;5094402;28;20054;-77
2021/04/09 02:09:41;;;;;;;3.65;2.08;;;;;;;4.76;47.76;97320.75;5093923;28;20038;-77
2021/04/09 02:12:07;;;;;;;4.03;2.40;;;;;;;4.88;46.91;97322.53;5108132;28;20037;-77
2021/04/09 02:14:33;;;;;;;6.18;2.35;;;;;;;4.95;46.33;97317.34;5110457;28;20034;-76
2021/04/09 02:16:59;;;;;;;5.40;2.42;;;;;;;5.07;46.41;97323.44;5094168;28;20066;-77
2021/04/09 02:19:25;;;;;;;3.60;2.25;;;;;;;5.06;46.70;97319.25;5090660;28;20075;-77
2021/04/09 02:21:52;;;;;;;5.15;2.15;;;;;;;5.14;45.89;97326.00;5089331;28;20027;-76
2021/04/09 02:24:21;;;;;;;4.32;2.38;;;;;;;5.24;45.43;97317.78;5077794;28;20441;-77
2021/04/09 02:26:46;;;;;;;4.35;2.10;;;;;;;5.31;45.58;97323.72;5082751;28;20055;-76
2021/04/09 02:29:12;;;;;;;7.63;3.05;;;;;;;5.32;46.23;97309.81;5090633;28;20266;-77
2021/04/09 02:31:37;;;;;;;5.25;2.78;;;;;;;5.32;45.95;97317.56;5125522;28;20072;-77
2021/04/09 02:34:03;;;;;;;4.57;2.55;;;;;;;5.25;45.95;97312.41;5110570;28;20092;-77
2021/04/09 02:36:29;;;;;;;4.55;2.35;;;;;;;5.14;46.18;97318.25;5094212;27;20636;-77
2021/04/09 02:38:57;;;;;;;4.32;2.35;;;;;;;4.99;46.17;97315.13;5107972;27;20085;-77
2021/04/09 02:41:28;;;;;;;5.25;2.47;;;;;;;4.95;46.48;97307.03;5110523;27;20549;-76
2021/04/09 02:43:54;;;;;;;3.30;1.90;;;;;;;5.02;46.57;97310.34;5093110;27;20398;-77
2021/04/09 02:46:28;;;;;;;4.88;2.25;;;;;;;4.70;46.52;97306.91;5107749;27;20027;-77
2021/04/09 02:49:00;;;;;;;4.60;2.28;;;;;;;4.76;46.59;97306.06;5107643;27;20444;-77
2021/04/09 02:51:27;;;;;;;4.15;2.08;;;;;;;4.89;46.76;97307.81;5097380;27;20034;-76
2021/04/09 02:53:55;;;;;;;5.05;2.45;;;;;;;4.76;46.97;97306.06;5085281;27;20469;-77
2021/04/09 02:56:22;;;;;;;4.80;2.70;;;;;;;4.84;46.86;97310.22;5080117;27;20030;-77
2021/04/09 02:58:47;;;;;;;4.10;2.28;;;;;;;4.88;46.93;97299.31;5097349;27;20110;-77
2021/04/09 03:01:13;;;;;;;5.15;2.38;;;;;;;4.93;46.81;97301.25;5096545;27;20064;-77
2021/04/09 03:03:38;;;;;;;5.93;2.42;;;;;;;4.92;46.59;97291.94;5097579;27;20031;-77
2021/04/09 03:06:04;;;;;;;3.83;2.30;;;;;;;5.09;45.43;97299.19;5096711;27;20027;-76
2021/04/09 03:08:30;;;;;;;5.40;2.35;;;;;;;5.37;45.22;97294.50;5094302;27;20038;-77
2021/04/09 03:10:55;;;;;;;4.18;2.40;;;;;;;5.55;44.56;97298.97;5109268;27;20394;-77
2021/04/09 03:13:21;;;;;;;4.65;2.45;;;;;;;5.62;44.54;97301.47;5114741;27;20357;-77
2021/04/09 03:15:54;;;;;;;4.68;2.67;;;;;;;5.50;44.80;97291.06;5125688;27;20449;-77
2021/04/09 03:18:19;;;;;;;6.45;3.20;;;;;;;5.82;44.29;97296.19;5113742;27;20388;-77
2021/04/09 03:20:45;;;;;;;4.47;2.50;;;;;;;5.85;44.96;97284.66;5094154;27;20035;-77
2021/04/09 03:23:10;;;;;;;3.50;2.28;;;;;;;5.90;43.98;97284.81;5113210;27;20035;-76
2021/04/09 03:25:36;;;;;;;5.75;2.50;;;;;;;5.92;43.99;97278.41;5104808;27;20051;-77
2021/04/09 03:28:03;;;;;;;4.90;2.42;;;;;;;5.86;43.45;97268.13;5089893;27;20410;-77
2021/04/09 03:30:29;;;;;;;4.80;2.33;;;;;;;5.85;44.20;97264.75;5096283;27;20037;-77
2021/04/09 03:32:54;;;;;;;4.05;2.28;;;;;;;5.87;44.31;97265.34;5105440;28;20032;-77
2021/04/09 03:35:20;;;;;;;4.43;2.17;;;;;;;5.86;43.63;97260.38;5112679;27;20051;-77
2021/04/09 03:37:46;;;;;;;3.65;2.40;;;;;;;5.80;43.41;97260.22;5112654;27;20071;-77
2021/04/09 03:40:12;;;;;;;4.05;2.05;;;;;;;5.83;43.71;97261.59;5092529;27;20370;-77
2021/04/09 03:42:37;;;;;;;4.50;2.30;;;;;;;5.82;43.74;97262.59;5090790;28;20043;-77
2021/04/09 03:45:07;;;;;;;4.45;2.28;;;;;;;5.63;43.65;97264.31;5096169;27;20371;-77
2021/04/09 03:47:32;;;;;;;8.15;2.75;;;;;;;5.80;44.64;97262.78;5095974;27;20037;-77
2021/04/09 03:49:57;;;;;;;3.65;1.90;;;;;;;5.71;43.45;97255.53;5106723;27;20031;-77
2021/04/09 03:52:23;;;;;;;6.80;2.30;;;;;;;5.69;43.96;97248.00;5083182;28;20111;-77
2021/04/09 03:54:49;;;;;;;5.03;2.00;;;;;;;5.66;43.63;97251.00;5085061;27;20023;-77
2021/04/09 03:57:15;;;;;;;4.13;2.45;;;;;;;5.74;43.93;97250.75;5092975;27;20088;-77
2021/04/09 03:59:40;;;;;;;4.05;2.53;;;;;;;5.70;43.44;97244.41;5096428;27;20037;-77
2021/04/09 04:02:05;;;;;;;3.28;2.38;;;;;;;5.69;43.41;97255.75;5078866;27;20027;-77
2021/04/09 04:04:31;;;;;;;5.57;2.50;;;;;;;5.61;43.42;97248.25;5096313;27;20092;-77
2021/04/09 04:06:56;;;;;;;3.28;2.33;;;;;;;5.44;44.09;97251.34;5078467;27;20035;-77
2021/04/09 04:09:21;;;;;;;5.63;2.58;;;;;;;5.73;43.82;97258.69;5105269;27;20035;-76
2021/04/09 04:11:47;;;;;;;3.60;2.28;;;;;;;5.86;43.18;97255.19;5112814;27;20020;-77
2021/04/09 04:14:12;;;;;;;4.72;2.47;;;;;;;5.84;44.47;97259.78;5087065;27;20028;-77
2021/04/09 04:16:38;;;;;;;6.30;2.63;;;;;;;5.76;44.98;97261.66;5113573;27;20432;-77
2021/04/09 04:19:03;;;;;;;4.28;2.20;;;;;;;5.63;44.65;97269.50;5124535;27;20114;-76
2021/04/09 04:21:29;;;;;;;3.45;2.30;;;;;;;5.67;44.15;97270.63;5123698;27;20701;-76
2021/04/09 04:23:54;;;;;;;4.15;2.20;;;;;;;5.74;44.16;97266.25;5103497;27;20032;-77
2021/04/09 04:26:19;;;;;;;4.78;2.20;;;;;;;5.73;43.52;97254.31;5091770;28;20466;-77
2021/04/09 04:28:45;;;;;;;5.30;2.30;;;;;;;5.85;43.14;97256.22;5075380;28;20126;-77
2021/04/09 04:31:11;;;;;;;3.67;1.88;;;;;;;5.88;43.35;97255.78;5078087;27;20023;-76
2021/04/09 04:33:37;;;;;;;3.65;2.10;;;;;;;5.90;43.46;97258.97;5112804;27;20058;-76
2021/04/09 04:36:03;;;;;;;3.58;2.20;;;;;;;5.92;43.17;97242.22;5078398;27;20398;-77
2021/04/09 04:38:28;;;;;;;4.65;2.30;;;;;;;6.00;42.72;97254.13;5107220;27;20390;-76
2021/04/09 04:40:54;;;;;;;3.55;1.85;;;;;;;6.06;42.86;97248.09;5080642;27;20050;-77
2021/04/09 04:43:19;;;;;;;6.22;2.50;;;;;;;6.06;42.56;97253.25;5122532;27;20097;-77
2021/04/09 04:45:45;;;;;;;3.83;2.03;;;;;;;6.10;42.20;97248.47;5076425;27;20408;-77
2021/04/09 04:48:11;;;;;;;3.60;2.10;;;;;;;6.13;42.43;97243.66;5091782;28;20400;-77
2021/04/09 04:50:37;;;;;;;3.20;1.85;;;;;;;6.08;42.95;97251.25;5074885;28;20024;-77
2021/04/09 04:53:03;;;;;;;5.22;2.15;;;;;;;6.02;43.12;97239.19;5091832;28;20081;-77
2021/04/09 04:55:30;;;;;;;5.30;2.35;;;;;;;6.07;42.56;97239.34;5077791;27;20114;-77
2021/04/09 04:57:55;;;;;;;2.72;1.90;;;;;;;6.02;42.27;97254.69;5087089;27;20039;-76
2021/04/09 05:00:21;;;;;;;3.97;1.80;;;;;;;6.04;42.57;97247.53;5075984;27;20034;-77
2021/04/09 05:02:46;;;;;;;4.95;2.50;;;;;;;6.11;42.96;97250.84;5122568;27;20027;-77
2021/04/09 05:05:12;;;;;;;6.15;2.45;;;;;;;6.08;43.85;97243.50;5093991;27;20051;-76
2021/04/09 05:07:37;;;;;;;4.10;2.20;;;;;;;6.10;42.96;97241.50;5093440;27;20478;-76
2021/04/09 05:10:07;;;;;;;3.75;1.92;;;;;;;6.10;42.92;97241.50;5108791;27;20080;-76
2021/04/09 05:12:33;;;;;;;5.05;2.03;;;;;;;6.26;43.53;97231.63;5087914;28;20023;-76
2021/04/09 05:14:58;;;;;;;5.88;2.38;;;;;;;6.33;43.54;97230.53;5109243;27;20046;-76
2021/04/09 05:17:24;;;;;;;4.85;2.25;;;;;;;6.30;44.21;97230.16;5088362;27;20608;-76
2021/04/09 05:19:49;;;;;;;3.85;2.33;;;;;;;6.26;43.30;97229.81;5075814;27;20037;-76
2021/04/09 05:22:15;;;;;;;4.45;2.42;;;;;;;6.27;43.90;97233.19;5092615;27;20065;-76
2021/04/09 05:24:40;;;;;;;5.47;2.95;;;;;;;6.19;44.22;97229.88;5103581;27;20058;-76
2021/04/09 05:27:06;;;;;;;4.03;2.10;;;;;;;6.25;43.89;97233.38;5104320;27;20340;-76
2021/04/09 05:29:31;;;;;;;6.18;2.28;;;;;;;6.36;43.55;97239.66;5111081;27;20043;-76
2021/04/09 05:31:57;;;;;;;4.15;1.83;;;;;;;6.41;43.32;97239.00;5103857;27;20042;-76
2021/04/09 05:34:23;;;;;;;4.18;2.30;;;;;;;6.51;43.63;97237.50;5073928;28;20024;-76
2021/04/09 05:36:48;;;;;;;4.60;2.08;;;;;;;6.57;43.65;97244.38;5105471;27;20041;-76
2021/04/09 05:39:14;;;;;;;3.97;2.35;;;;;;;6.68;43.03;97229.16;5102465;28;20118;-76
2021/04/09 05:41:40;;;;;;;5.25;1.95;;;;;;;6.76;43.68;97228.84;5093135;28;20145;-76
2021/04/09 05:44:06;;;;;;;4.40;2.25;;;;;;;6.91;43.45;97229.25;5088744;28;20050;-76
2021/04/09 05:46:31;;;;;;;5.50;2.60;;;;;;;6.92;43.94;97225.66;5107350;28;20081;-76
2021/04/09 05:48:57;;;;;;;2.97;2.00;;;;;;;7.07;42.36;97232.25;5090633;28;20043;-76
2021/04/09 05:51:22;;;;;;;3.58;2.28;;;;;;;7.26;41.27;97231.16;5106862;28;20509;-76
2021/04/09 05:53:50;;;;;;;3.55;2.22;;;;;;;7.43;40.50;97233.13;5089509;28;20439;-76
2021/04/09 05:56:16;;;;;;;4.43;1.80;;;;;;;7.56;40.42;97239.94;5073342;28;20019;-76
2021/04/09 05:58:41;;;;;;;4.50;2.08;;;;;;;7.54;41.18;97234.97;5110753;28;20034;-76
2021/04/09 06:01:07;;;;;;;4.85;2.03;;;;;;;7.54;42.00;97231.56;5086267;28;20088;-76
2021/04/09 06:03:32;;;;;;;3.78;2.20;;;;;;;7.64;40.59;97230.03;5109618;28;20372;-76
2021/04/09 06:05:57;;;;;;;7.85;1.77;;;;;;;7.66;40.67;97228.00;5109506;28;20107;-76
2021/04/09 06:08:23;;;;;;;4.40;1.70;;;;;;;7.79;39.52;97218.41;5090413;28;20027;-76
2021/04/09 06:10:48;;;;;;;4.25;1.92;;;;;;;7.96;39.71;97219.31;5131251;27;20045;-76
2021/04/09 06:13:15;;;;;;;4.55;1.67;;;;;;;8.04;39.23;97226.75;5133035;27;20512;-76
2021/04/09 06:15:40;;;;;;;3.45;1.85;;;;;;;8.23;39.20;97208.47;5097783;27;20027;-76
2021/04/09 06:18:06;;;;;;;2.75;1.77;;;;;;;8.41;38.60;97210.94;5113700;27;20027;-76
2021/04/09 06:20:31;;;;;;;5.18;1.88;;;;;;;8.54;37.56;97209.91;5109777;27;20062;-76
2021/04/09 06:22:56;;;;;;;3.75;1.48;;;;;;;8.66;38.32;97209.88;5090853;28;20024;-76
2021/04/09 06:25:23;;;;;;;2.50;1.15;;;;;;;8.71;37.38;97207.38;5114149;27;20468;-76
2021/04/09 06:27:48;;;;;;;2.58;1.50;;;;;;;8.81;36.73;97210.16;5074678;28;20559;-76
2021/04/09 06:30:14;;;;;;;2.83;1.60;;;;;;;9.04;37.60;97203.28;5095936;27;20027;-76
2021/04/09 06:32:40;;;;;;;2.97;1.45;;;;;;;9.25;36.85;97198.44;5108403;28;20023;-76
2021/04/09 06:35:06;;;;;;;4.72;1.77;;;;;;;9.33;37.99;97201.44;5087266;28;20327;-76
2021/04/09 06:37:31;;;;;;;3.72;1.67;;;;;;;9.31;37.00;97202.69;5104767;27;20035;-76
2021/04/09 06:39:56;;;;;;;3.20;1.38;;;;;;;9.39;37.62;97207.53;5103316;28;20035;-76
2021/04/09 06:42:22;;;;;;;4.20;2.00;;;;;;;9.33;39.13;97205.84;5109077;28;20048;-76
2021/04/09 06:44:48;;;;;;;2.75;1.60;;;;;;;9.44;38.05;97201.59;5090150;27;20381;-76
2021/04/09 06:47:16;;;;;;;2.45;1.80;;;;;;;9.31;39.63;97200.09;5110378;28;20475;-77
2021/04/09 06:49:42;;;;;;;3.88;1.83;;;;;;;9.67;38.76;97204.03;5074443;27;20058;-76
2021/04/09 06:52:14;;;;;;;2.45;1.70;;;;;;;9.46;38.99;97192.56;5107060;27;20035;-76
2021/04/09 06:54:42;;;;;;;5.10;2.13;;;;;;;9.75;38.83;97193.25;5088523;28;20498;-76
2021/04/09 06:57:12;;;;;;;4.38;1.45;;;;;;;9.52;39.20;97193.41;5071268;27;20027;-76
2021/04/09 06:59:41;;;;;;;3.83;1.90;;;;;;;9.75;39.77;97197.66;5077533;27;20065;-76
2021/04/09 07:02:11;;;;;;;4.03;2.30;;;;;;;10.17;39.88;97202.38;5091824;27;20034;-76
2021/04/09 07:04:37;;;;;;;3.42;1.88;;;;;;;10.48;39.28;97195.00;5128693;27;20031;-76
2021/04/09 07:07:13;;;;;;;2.85;1.90;;;;;;;10.34;39.40;97194.56;5087913;28;20078;-76
2021/04/09 07:09:39;;;;;;;3.08;1.70;;;;;;;10.80;38.20;97189.09;5127715;27;20071;-76
2021/04/09 07:12:06;;;;;;;3.17;2.25;;;;;;;10.83;38.48;97181.56;5055971;27;20038;-76
2021/04/09 07:15:02;;;;;;;4.15;2.20;;;;;;;10.54;38.30;97193.22;5095077;28;20588;-76
2021/04/09 07:17:48;;;;;;;3.38;1.90;;;;;;;10.51;38.78;97191.91;5079533;27;20338;-76
2021/04/09 07:20:15;;;;;;;3.75;1.92;;;;;;;10.82;39.19;97189.63;5110642;27;20471;-76
2021/04/09 07:22:43;;;;;;;4.38;1.73;;;;;;;10.65;39.74;97189.72;5093620;27;20039;-76
2021/04/09 07:25:17;;;;;;;3.38;1.80;;;;;;;10.51;39.30;97189.31;5098014;28;20533;-76
2021/04/09 07:27:47;;;;;;;4.07;1.65;;;;;;;10.73;40.44;97193.69;5066139;28;20034;-76
2021/04/09 07:30:26;;;;;;;3.30;2.10;;;;;;;10.58;40.62;97189.13;5098445;27;20153;-76
2021/04/09 07:32:52;;;;;;;4.97;2.08;;;;;;;11.28;39.99;97189.28;5077570;27;20059;-76
2021/04/09 07:35:17;;;;;;;3.20;1.70;;;;;;;11.64;38.66;97195.53;5074776;28;20599;-76
2021/04/09 07:37:56;;;;;;;3.47;1.70;;;;;;;11.30;39.21;97195.81;5099079;28;20082;-76
2021/04/09 07:40:33;;;;;;;4.20;1.63;;;;;;;11.58;39.49;97196.53;5120214;27;20088;-76
2021/04/09 07:42:59;;;;;;;4.53;2.00;;;;;;;12.04;39.00;97199.47;5100553;27;20039;-76
2021/04/09 07:45:27;;;;;;;4.20;2.05;;;;;;;12.14;39.19;97191.69;5090486;27;20096;-76
2021/04/09 07:47:59;;;;;;;5.65;2.33;;;;;;;12.36;39.01;97185.53;5102798;27;20474;-76
2021/04/09 07:50:39;;;;;;;4.03;1.88;;;;;;;12.35;38.41;97194.41;5086325;27;20045;-77
2021/04/09 07:53:06;;;;;;;4.25;2.22;;;;;;;12.80;38.71;97181.75;5106420;27;20477;-77
2021/04/09 07:55:32;;;;;;;6.85;2.03;;;;;;;12.93;37.70;97182.03;5099177;27;20031;-77
2021/04/09 07:58:18;;;;;;;3.70;2.33;;;;;;;12.83;38.51;97183.84;5075653;28;20067;-77
2021/04/09 08:00:44;;;;;;;;;;;;;;;12.92;38.75;97182.31;5108943;27;20040;-77
2021/04/09 08:03:09;;;;;;;4.82;1.95;;;;;;;13.52;36.79;97180.03;5108970;27;19918;-76
2021/04/09 08:05:35;;;;;;;5.65;2.30;;;;;;;13.25;37.58;97180.25;5096782;28;20477;-76
2021/04/09 08:08:00;;;;;;;4.25;2.13;;;;;;;13.74;38.46;97176.31;5061427;28;20028;-76
2021/04/09 08:10:33;;;;;;;5.00;2.33;;;;;;;13.88;37.30;97173.94;5086507;27;20058;-76
2021/04/09 08:13:00;;;;;;;4.43;2.45;;;;;;;14.27;36.62;97174.06;5099062;27;20030;-76
2021/04/09 08:15:26;;;;;;;7.32;3.15;;;;;;;14.55;36.61;97161.41;5057823;28;20024;-77
2021/04/09 08:18:06;;;;;;;3.33;2.25;;;;;;;14.38;36.49;97157.28;5100920;27;20031;-77
2021/04/09 08:20:37;;;;;;;3.20;2.00;;;;;;;14.53;35.72;97164.28;5086917;27;20354;-76
2021/04/09 08:23:08;;;;;;;4.22;1.80;;;;;;;14.87;35.38;97160.19;5120077;27;20063;-76
2021/04/09 08:25:35;;;;;;;4.47;2.03;;;;;;;14.79;36.55;97151.84;5094280;27;20453;-76
2021/04/09 08:28:04;;;;;;;4.80;2.10;;;;;;;14.98;35.62;97166.94;5095718;27;20503;-77
2021/04/09 08:30:29;;;;;;;4.43;2.67;;;;;;;15.43;33.77;97162.41;5062079;27;20031;-77
2021/04/09 08:32:56;;;;;;;5.03;2.13;;;;;;;15.84;33.79;97161.28;5105366;27;20035;-77
2021/04/09 08:35:22;;;;;;;4.70;2.10;;;;;;;15.90;33.40;97160.94;5083101;27;21618;-76
2021/04/09 08:37:52;;;;;;;5.38;2.10;;;;;;;15.58;33.19;97168.59;5104837;27;20066;-76
2021/04/09 08:40:18;;;;;;;3.92;2.30;;;;;;;15.42;33.12;97158.22;5122261;27;20027;-76
2021/04/09 08:42:44;;;;;;;5.10;2.60;;;;;;;15.68;34.30;97158.75;5091895;27;20062;-77
2021/04/09 08:45:11;;;;;;;3.40;2.10;;;;;;;15.49;33.54;97165.75;5127978;27;20471;-76
2021/04/09 08:47:37;;;;;;;3.45;1.75;;;;;;;15.51;33.67;97172.31;5108626;27;20062;-77
2021/04/09 08:50:07;;;;;;;2.65;1.90;;;;;;;15.71;33.38;97162.66;5088157;27;20063;-77
2021/04/09 08:52:37;;;;;;;5.25;2.60;;;;;;;15.79;33.55;97169.97;5092018;27;20148;-77
2021/04/09 08:55:03;;;;;;;3.92;2.80;;;;;;;15.50;33.71;97175.97;5088848;27;20024;-76
2021/04/09 08:57:35;;;;;;;5.05;2.40;;;;;;;15.28;33.59;97171.16;5078692;27;20035;-76
2021/04/09 09:00:04;;;;;;;9.20;2.92;;;;;;;15.00;34.34;97170.06;5078850;27;20023;-77
2021/04/09 09:02:56;;;;;;;5.03;2.35;;;;;;;15.29;34.49;97167.50;5089261;27;20034;-77
2021/04/09 09:05:24;;;;;;;4.72;2.60;;;;;;;15.58;33.83;97158.88;5109448;27;20047;-77
2021/04/09 09:07:49;;;;;;;3.35;2.45;;;;;;;15.54;32.75;97156.00;5077143;28;20100;-76
2021/04/09 09:10:29;;;;;;;3.92;2.50;;;;;;;15.30;33.13;97157.78;5101976;27;20172;-76
2021/04/09 09:13:16;;;;;;;6.80;2.35;;;;;;;15.40;33.59;97157.69;5121160;27;20555;-76
2021/04/09 09:15:45;;;;;;;4.57;2.38;;;;;;;15.84;33.64;97166.53;5096500;27;20031;-76
2021/04/09 09:18:22;;;;;;;6.53;2.20;;;;;;;15.27;35.65;97164.38;5110577;27;20034;-77
2021/04/09 09:21:10;;;;;;;4.55;2.33;;;;;;;15.35;34.08;97161.16;5111087;27;20031;-76
2021/04/09 09:23:56;;;;;;;5.00;2.28;;;;;;;16.03;32.43;97158.69;5075266;27;20035;-77
2021/04/09 09:26:32;;;;;;;4.28;2.40;;;;;;;16.18;32.07;97158.53;5084611;27;20174;-76
2021/04/09 09:29:29;;;;;;;4.38;2.30;;;;;;;16.12;33.50;97154.38;5118099;27;20035;-77
2021/04/09 09:32:02;;;;;;;3.53;2.17;;;;;;;16.71;31.84;97146.28;5074899;27;20027;-76
2021/04/09 09:34:27;;;;;;;3.67;2.03;;;;;;;17.14;30.64;97138.34;5105042;28;20104;-76
2021/04/09 09:37:11;;;;;;;4.45;2.25;;;;;;;16.84;31.91;97145.59;5068756;27;20126;-76
2021/04/09 09:39:47;;;;;;;4.82;2.75;;;;;;;17.20;32.24;97137.97;5087251;27;20036;-76
2021/04/09 09:42:42;;;;;;;4.25;2.17;;;;;;;16.81;32.08;97131.16;5101193;28;20031;-76
2021/04/09 09:45:35;;;;;;;4.47;2.65;;;;;;;17.11;31.53;97144.16;5100872;28;20087;-76
2021/04/09 09:48:16;;;;;;;4.43;2.03;;;;;;;17.59;31.06;97142.03;5102394;27;20042;-76
2021/04/09 09:50:41;;;;;;;5.32;2.65;;;;;;;18.36;28.59;97133.78;5102973;28;20023;-76
2021/04/09 09:53:07;;;;;;;4.00;2.58;;;;;;;18.30;29.39;97135.72;5088084;28;20101;-76
2021/04/09 09:55:36;;;;;;;4.90;2.40;;;;;;;17.98;30.55;97134.03;5092855;28;20024;-77
2021/04/09 09:58:16;;;;;;;6.43;2.65;;;;;;;18.05;29.75;97134.41;5117761;28;20474;-74
2021/04/09 10:00:51;;;;;;;4.25;2.15;;;;;;;17.98;30.36;97124.25;5104688;28;20035;-76
2021/04/09 10:03:17;;;;;;;4.38;2.67;;;;;;;18.63;27.65;97128.44;5100956;28;20027;-76
2021/04/09 10:05:51;;;;;;;4.75;2.40;;;;;;;18.57;28.56;97132.25;5082059;28;20032;-76
2021/04/09 10:08:18;;;;;;;3.22;2.28;;;;;;;19.21;28.51;97126.88;5069781;28;20019;-76
2021/04/09 10:10:53;;;;;;;4.15;2.20;;;;;;;19.47;27.77;97128.91;5097376;28;20104;-76
2021/04/09 10:13:25;;;;;;;4.38;1.92;;;;;;;19.54;26.77;97123.94;5082600;28;20035;-76
2021/04/09 10:15:53;;;;;;;3.90;2.40;;;;;;;19.42;26.21;97113.19;5061591;28;20077;-76
2021/04/09 10:18:19;;;;;;;2.47;2.17;;;;;;;18.91;28.70;97117.81;5064016;28;20670;-76
2021/04/09 10:20:47;;;;;;;3.78;2.17;;;;;;;19.00;28.03;97104.69;5104583;28;20035;-76
2021/04/09 10:23:14;;;;;;;4.03;1.90;;;;;;;18.82;27.92;97103.78;5084941;28;20231;-76
2021/04/09 10:25:39;;;;;;;4.82;2.53;;;;;;;19.57;27.38;97102.22;5102054;28;20051;-76
2021/04/09 10:28:12;;;;;;;4.10;2.08;;;;;;;19.23;26.89;97108.88;5078841;28;20040;-76
2021/04/09 10:30:38;;;;;;;3.85;2.90;;;;;;;19.95;25.63;97101.75;5081981;28;20105;-76
2021/04/09 10:33:04;;;;;;;5.45;2.30;;;;;;;20.18;24.71;97106.94;5099198;28;20096;-76
2021/04/09 10:35:29;;;;;;;4.95;2.50;;;;;;;20.28;26.08;97106.63;5094091;28;20058;-76
2021/04/09 10:38:12;;;;;;;6.53;2.33;;;;;;;19.69;26.00;97108.78;5081805;28;20479;-76
2021/04/09 10:40:57;;;;;;;3.55;2.17;;;;;;;19.13;26.09;97103.84;5095880;28;20399;-76
2021/04/09 10:43:33;;;;;;;4.30;2.55;;;;;;;19.71;25.16;97106.63;5080300;28;20119;-76
2021/04/09 10:46:10;;;;;;;5.30;2.92;;;;;;;20.25;24.31;97098.56;5072834;28;20107;-76
2021/04/09 10:48:36;;;;;;;4.47;2.22;;;;;;;20.73;23.90;97097.66;5091837;28;20389;-76
2021/04/09 10:51:02;;;;;;;4.13;2.25;;;;;;;20.61;24.34;97087.69;5080286;28;20424;-77
2021/04/09 10:53:27;;;;;;;3.22;1.90;;;;;;;20.42;24.03;97090.63;5097528;28;20433;-76
2021/04/09 10:55:59;;;;;;;3.47;1.95;;;;;;;20.09;25.09;97088.41;5095134;28;20107;-76
2021/04/09 10:58:25;;;;;;;3.25;2.10;;;;;;;20.52;23.73;97087.69;5096604;27;20155;-76
2021/04/09 11:00:50;;;;;;;4.85;2.58;;;;;;;19.81;24.03;97085.25;5081687;27;20019;-75
2021/04/09 11:03:16;;;;;;;3.20;2.05;;;;;;;19.74;23.50;97084.88;5099372;27;20528;-73
2021/04/09 11:05:41;;;;;;;3.53;2.20;;;;;;;19.53;24.15;97084.63;5083664;27;20036;-74
2021/04/09 11:08:06;;;;;;;4.22;2.17;;;;;;;19.88;25.46;97080.28;5057198;28;20135;-74
2021/04/09 11:10:34;;;;;;;2.70;2.08;;;;;;;20.02;23.41;97070.38;5101934;27;20032;-74
2021/04/09 11:12:59;;;;;;;3.85;2.13;;;;;;;20.15;23.65;97070.53;5089401;27;20321;-74
2021/04/09 11:15:26;;;;;;;4.53;2.00;;;;;;;20.20;23.67;97075.69;5097432;28;20111;-74
2021/04/09 11:17:54;;;;;;;3.45;2.22;;;;;;;20.65;22.96;97056.91;5092167;27;20544;-74
2021/04/09 11:20:29;;;;;;;5.15;2.30;;;;;;;20.86;24.04;97064.97;5087810;27;20558;-74
2021/04/09 11:23:06;;;;;;;5.82;2.10;;;;;;;20.89;25.99;97060.94;5097049;28;20043;-74
2021/04/09 11:25:34;;;;;;;3.95;1.92;;;;;;;21.89;23.58;97062.28;5117182;27;20118;-74
2021/04/09 11:28:00;;;;;;;4.53;2.00;;;;;;;21.56;24.09;97050.75;5104614;27;20059;-74
2021/04/09 11:30:30;;;;;;;3.88;2.28;;;;;;;21.40;23.59;97045.97;5074902;28;20479;-74
2021/04/09 11:32:56;;;;;;;4.30;1.98;;;;;;;22.06;23.09;97056.13;5068949;27;20090;-74
2021/04/09 11:35:22;;;;;;;3.60;1.90;;;;;;;21.65;22.75;97047.00;5075804;27;20414;-74
2021/04/09 11:37:55;;;;;;;3.67;2.25;;;;;;;21.92;23.42;97049.50;5078324;27;20033;-74
2021/04/09 11:40:41;;;;;;;4.53;2.13;;;;;;;21.61;23.19;97043.44;5082391;27;20031;-74
2021/04/09 11:43:09;;;;;;;2.88;2.28;;;;;;;21.32;24.03;97033.56;5086740;28;20444;-74
2021/04/09 11:45:41;;;;;;;4.70;2.47;;;;;;;20.61;24.87;97031.34;5092385;27;20031;-74